Time;durP1;ratioP1;P1;durP2;ratioP2;P2;SDS_P1;SDS_P2;PMS_P1;PMS_P2;Temp;Humidity;BMP_temperature;BMP_pressure;BME280_temperature;BME280_humidity;BME280_pressure;Samples;Min_cycle;Max_cycle;Signal;HPM_P1;HPM_P2
2021/09/01 00:11:03;;;;;;;6.85;3.85;;;13.40;94.40;;;;;;4933178;29;20071;-69
2021/09/01 00:13:29;;;;;;;59.55;7.65;;;13.40;94.00;;;;;;4961044;28;20031;-68
2021/09/01 00:15:54;;;;;;;5.53;3.92;;;13.20;93.60;;;;;;4932756;29;20027;-69
2021/09/01 00:18:20;;;;;;;5.85;4.10;;;13.10;94.20;;;;;;4932762;29;20114;-69
2021/09/01 00:20:45;;;;;;;4.55;3.75;;;13.10;94.30;;;;;;4926326;29;20024;-69
2021/09/01 00:23:14;;;;;;;6.63;4.10;;;13.10;93.80;;;;;;4932650;29;20086;-69
2021/09/01 00:25:43;;;;;;;13.15;3.85;;;13.10;93.20;;;;;;4929041;29;20046;-69
2021/09/01 00:28:09;;;;;;;5.30;4.40;;;12.90;93.80;;;;;;4931216;29;20024;-69
2021/09/01 00:30:35;;;;;;;5.45;3.42;;;12.80;94.30;;;;;;4929477;28;20028;-69
2021/09/01 00:33:01;;;;;;;4.90;4.03;;;13.00;94.30;;;;;;4932997;29;20107;-69
2021/09/01 00:35:26;;;;;;;3.78;3.38;;;13.00;94.00;;;;;;4932257;29;20473;-69
2021/09/01 00:37:52;;;;;;;4.35;3.38;;;13.00;93.10;;;;;;4931411;29;20550;-69
2021/09/01 00:40:18;;;;;;;6.70;3.33;;;13.00;93.00;;;;;;4932601;29;20035;-69
2021/09/01 00:42:44;;;;;;;6.57;4.05;;;12.90;93.10;;;;;;4934409;29;20044;-69
2021/09/01 00:45:10;;;;;;;5.13;4.03;;;12.90;93.60;;;;;;4932435;28;20043;-69
2021/09/01 00:47:37;;;;;;;4.95;3.60;;;12.90;93.50;;;;;;4934107;29;20094;-69
2021/09/01 00:50:07;;;;;;;4.70;3.75;;;12.80;93.40;;;;;;4931890;29;20115;-69
2021/09/01 00:52:38;;;;;;;7.30;4.35;;;12.80;93.30;;;;;;4930539;29;20040;-70
2021/09/01 00:55:04;;;;;;;44.70;6.00;;;12.90;93.50;;;;;;4934491;29;20087;-69
2021/09/01 00:57:31;;;;;;;12.43;4.80;;;12.70;93.40;;;;;;4935668;28;20163;-69
2021/09/01 00:59:56;;;;;;;5.55;3.85;;;12.60;94.20;;;;;;4932475;29;20027;-69
2021/09/01 01:02:23;;;;;;;5.65;4.20;;;12.60;94.40;;;;;;4963721;28;20667;-69
2021/09/01 01:04:49;;;;;;;5.75;3.88;;;12.60;94.10;;;;;;4933754;28;20031;-68
2021/09/01 01:07:15;;;;;;;5.18;3.63;;;12.60;94.10;;;;;;4932574;29;20028;-68
2021/09/01 01:09:41;;;;;;;5.45;3.88;;;12.60;93.90;;;;;;4934091;29;20070;-69
2021/09/01 01:12:12;;;;;;;4.75;3.72;;;12.60;93.80;;;;;;4931778;28;21974;-68
2021/09/01 01:14:41;;;;;;;4.32;3.10;;;12.70;93.50;;;;;;4930644;29;20397;-68
2021/09/01 01:17:09;;;;;;;7.60;4.65;;;12.60;93.00;;;;;;4932024;29;20091;-69
2021/09/01 01:19:42;;;;;;;7.57;3.60;;;12.60;93.20;;;;;;4929333;28;21350;-69
2021/09/01 01:22:09;;;;;;;4.22;3.58;;;12.50;93.30;;;;;;4932043;29;20418;-69
2021/09/01 01:24:47;;;;;;;6.07;3.88;;;12.60;93.50;;;;;;4929302;29;20063;-69
2021/09/01 01:27:27;;;;;;;5.88;3.72;;;12.60;93.40;;;;;;4931591;29;20055;-68
2021/09/01 01:29:54;;;;;;;5.18;3.55;;;12.60;93.30;;;;;;4932266;29;20034;-69
2021/09/01 01:32:20;;;;;;;6.30;2.97;;;12.50;93.40;;;;;;4930972;28;20043;-69
2021/09/01 01:34:45;;;;;;;4.50;3.42;;;12.40;93.70;;;;;;4934402;29;20039;-69
2021/09/01 01:37:11;;;;;;;6.20;3.33;;;12.50;93.60;;;;;;4938385;28;20530;-69
2021/09/01 01:39:36;;;;;;;5.78;2.92;;;12.40;93.40;;;;;;4928774;28;20083;-68
2021/09/01 01:42:02;;;;;;;5.78;3.70;;;12.50;93.30;;;;;;4929781;29;20038;-68
2021/09/01 01:44:28;;;;;;;9.57;3.80;;;12.40;93.30;;;;;;4931820;29;20027;-69
2021/09/01 01:46:53;;;;;;;4.35;3.35;;;12.50;93.40;;;;;;4928090;29;20035;-68
2021/09/01 01:49:19;;;;;;;5.63;3.80;;;12.40;93.60;;;;;;4930326;29;20058;-68
2021/09/01 01:51:49;;;;;;;12.73;3.38;;;12.40;93.60;;;;;;4929389;29;20031;-68
2021/09/01 01:54:14;;;;;;;18.25;3.75;;;12.40;93.50;;;;;;4931127;29;20106;-68
2021/09/01 01:56:40;;;;;;;7.95;3.42;;;12.40;93.60;;;;;;4929384;29;20174;-69
2021/09/01 01:59:05;;;;;;;4.93;3.30;;;12.40;93.60;;;;;;4929617;29;20461;-68
2021/09/01 02:01:31;;;;;;;10.85;3.97;;;12.40;93.70;;;;;;4929779;29;20031;-68
2021/09/01 02:03:57;;;;;;;4.75;3.17;;;12.30;93.70;;;;;;4929739;29;20218;-68
2021/09/01 02:06:22;;;;;;;4.18;3.67;;;12.30;93.70;;;;;;4930894;29;20023;-69
2021/09/01 02:08:48;;;;;;;4.07;3.58;;;12.30;93.90;;;;;;4931132;29;20357;-68
2021/09/01 02:11:13;;;;;;;4.15;3.13;;;12.20;93.90;;;;;;4932838;28;20070;-69
2021/09/01 02:13:39;;;;;;;5.15;3.65;;;12.20;94.10;;;;;;4929459;28;20035;-68
2021/09/01 02:16:05;;;;;;;5.30;3.78;;;12.30;94.10;;;;;;4929413;29;20159;-69
2021/09/01 02:18:30;;;;;;;8.57;3.47;;;12.30;94.10;;;;;;4929800;29;20110;-68
2021/09/01 02:20:56;;;;;;;22.13;4.63;;;12.30;94.10;;;;;;4930590;29;20369;-68
2021/09/01 02:23:21;;;;;;;5.75;3.45;;;12.30;94.10;;;;;;4931792;28;20032;-68
2021/09/01 02:25:47;;;;;;;4.35;3.22;;;12.20;94.20;;;;;;4925493;29;20032;-68
2021/09/01 02:28:13;;;;;;;10.45;4.75;;;12.30;94.20;;;;;;4928150;29;20038;-68
2021/09/01 02:30:38;;;;;;;15.07;3.63;;;12.30;94.20;;;;;;4930343;29;20154;-68
2021/09/01 02:33:05;;;;;;;7.07;3.80;;;12.20;94.20;;;;;;4929499;29;20034;-68
2021/09/01 02:35:31;;;;;;;11.43;4.20;;;12.20;94.20;;;;;;4933080;29;20031;-69
2021/09/01 02:37:56;;;;;;;4.18;3.45;;;12.10;94.20;;;;;;4932522;29;20040;-68
2021/09/01 02:40:23;;;;;;;18.17;3.60;;;12.10;94.40;;;;;;4936380;28;20114;-68
2021/09/01 02:42:49;;;;;;;5.40;3.45;;;12.10;94.20;;;;;;4934767;29;20058;-70
2021/09/01 02:45:17;;;;;;;6.70;3.10;;;12.10;94.50;;;;;;4934336;28;20035;-68
2021/09/01 02:47:46;;;;;;;4.90;3.55;;;12.10;94.40;;;;;;4936682;29;20115;-68
2021/09/01 02:50:14;;;;;;;6.13;3.15;;;12.10;94.40;;;;;;4933316;29;20043;-69
2021/09/01 02:52:40;;;;;;;4.25;3.50;;;12.10;94.40;;;;;;4932968;29;20032;-69
2021/09/01 02:55:06;;;;;;;4.13;3.60;;;12.10;94.20;;;;;;4936172;29;20047;-68
2021/09/01 02:57:32;;;;;;;5.10;3.42;;;12.00;94.20;;;;;;4933809;29;20031;-68
2021/09/01 02:59:58;;;;;;;3.55;2.80;;;12.10;94.30;;;;;;4933003;29;20028;-68
2021/09/01 03:02:23;;;;;;;10.32;3.10;;;12.10;94.40;;;;;;4933787;28;20050;-69
2021/09/01 03:04:49;;;;;;;3.75;3.05;;;12.00;94.40;;;;;;4934933;28;20032;-68
2021/09/01 03:07:14;;;;;;;9.95;3.33;;;12.00;94.60;;;;;;4936138;28;20028;-68
2021/09/01 03:09:40;;;;;;;30.35;4.70;;;12.10;94.60;;;;;;4932600;29;20405;-68
2021/09/01 03:12:06;;;;;;;3.00;2.70;;;12.00;94.60;;;;;;4936032;29;20024;-69
2021/09/01 03:14:32;;;;;;;6.10;3.00;;;12.00;94.60;;;;;;4934615;29;20020;-69
2021/09/01 03:16:57;;;;;;;4.95;3.25;;;12.00;94.50;;;;;;4936245;29;20024;-68
2021/09/01 03:19:23;;;;;;;4.95;3.75;;;12.00;94.60;;;;;;4933774;28;20024;-69
2021/09/01 03:21:49;;;;;;;11.65;3.60;;;12.00;94.40;;;;;;4934609;28;20485;-68
2021/09/01 03:24:15;;;;;;;5.38;3.42;;;12.00;94.40;;;;;;4933783;29;20035;-68
2021/09/01 03:26:41;;;;;;;6.97;3.85;;;12.00;94.30;;;;;;4936463;29;20032;-68
2021/09/01 03:29:07;;;;;;;10.65;3.40;;;11.90;94.60;;;;;;4935099;29;20102;-69
2021/09/01 03:31:32;;;;;;;40.72;5.72;;;11.90;94.50;;;;;;4934124;29;20038;-69
2021/09/01 03:33:58;;;;;;;6.35;3.97;;;11.90;94.40;;;;;;4934786;29;20477;-68
2021/09/01 03:36:24;;;;;;;4.18;3.25;;;11.90;94.40;;;;;;4940161;29;20066;-68
2021/09/01 03:38:50;;;;;;;3.42;3.13;;;11.90;94.30;;;;;;4935672;29;20166;-69
2021/09/01 03:41:16;;;;;;;8.30;3.70;;;11.90;94.40;;;;;;4935006;29;20063;-68
2021/09/01 03:43:41;;;;;;;5.10;3.20;;;11.80;94.50;;;;;;4933638;29;20466;-68
2021/09/01 03:46:07;;;;;;;36.80;4.50;;;11.80;94.50;;;;;;4933467;29;20046;-68
2021/09/01 03:48:33;;;;;;;3.25;2.33;;;11.90;94.30;;;;;;4932986;29;20118;-68
2021/09/01 03:50:59;;;;;;;5.47;4.03;;;11.80;94.50;;;;;;4934145;29;20047;-68
2021/09/01 03:53:25;;;;;;;20.80;3.45;;;11.70;94.20;;;;;;4933668;29;20107;-68
2021/09/01 03:55:51;;;;;;;16.30;3.33;;;11.70;94.40;;;;;;4934280;29;20122;-68
2021/09/01 03:58:16;;;;;;;4.45;2.90;;;11.70;94.40;;;;;;4930605;29;20027;-69
2021/09/01 04:00:43;;;;;;;3.15;2.72;;;11.70;94.60;;;;;;4931451;29;20050;-68
2021/09/01 04:03:09;;;;;;;3.15;2.85;;;11.70;94.50;;;;;;4932984;29;20039;-69
2021/09/01 04:05:35;;;;;;;3.42;2.92;;;11.60;94.80;;;;;;4932349;29;20078;-69
2021/09/01 04:08:01;;;;;;;12.98;3.47;;;11.60;94.80;;;;;;4934895;29;20047;-68
2021/09/01 04:10:27;;;;;;;2.58;2.38;;;11.60;94.50;;;;;;4933776;29;20154;-68
2021/09/01 04:12:52;;;;;;;3.42;3.13;;;11.60;94.70;;;;;;4931185;29;20107;-68
2021/09/01 04:15:18;;;;;;;3.92;2.97;;;11.60;94.50;;;;;;4929755;29;20152;-68
2021/09/01 04:17:44;;;;;;;3.80;3.50;;;11.60;94.80;;;;;;4933429;29;20043;-69
2021/09/01 04:20:10;;;;;;;3.30;2.85;;;11.60;94.60;;;;;;4932505;29;20485;-69
2021/09/01 04:22:35;;;;;;;5.88;3.05;;;11.60;94.80;;;;;;4933728;29;20067;-68
2021/09/01 04:25:02;;;;;;;9.75;2.72;;;11.50;94.80;;;;;;4935725;29;20115;-68
2021/09/01 04:27:27;;;;;;;6.18;2.78;;;11.50;94.80;;;;;;4929187;29;20163;-68
2021/09/01 04:29:53;;;;;;;2.92;2.65;;;11.50;94.90;;;;;;4932476;28;20485;-68
2021/09/01 04:32:18;;;;;;;7.72;4.18;;;11.40;94.80;;;;;;4928759;28;20035;-68
2021/09/01 04:34:44;;;;;;;3.85;2.85;;;11.50;94.70;;;;;;4934213;28;20027;-68
2021/09/01 04:37:10;;;;;;;3.53;2.72;;;11.50;94.90;;;;;;4934595;29;20034;-68
2021/09/01 04:39:36;;;;;;;3.47;2.85;;;11.50;94.90;;;;;;4933864;29;20036;-68
2021/09/01 04:42:02;;;;;;;6.70;2.83;;;11.50;94.90;;;;;;4933945;29;20484;-68
2021/09/01 04:44:28;;;;;;;8.25;3.00;;;11.50;94.70;;;;;;4930485;29;20087;-68
2021/09/01 04:46:54;;;;;;;13.13;3.35;;;11.50;94.60;;;;;;4929944;29;20139;-68
2021/09/01 04:49:19;;;;;;;9.05;3.35;;;11.50;94.70;;;;;;4934781;29;20046;-68
2021/09/01 04:51:45;;;;;;;5.20;2.78;;;11.50;94.70;;;;;;4932683;29;20036;-69
2021/09/01 04:54:11;;;;;;;24.85;5.68;;;11.50;94.80;;;;;;4931941;29;20398;-68
2021/09/01 04:56:36;;;;;;;3.28;2.97;;;11.40;94.70;;;;;;4933258;29;20339;-69
2021/09/01 04:59:02;;;;;;;9.90;3.35;;;11.40;94.80;;;;;;4933015;29;20042;-69
2021/09/01 05:01:27;;;;;;;20.45;3.75;;;11.40;95.10;;;;;;4934562;28;20553;-69
2021/09/01 05:03:53;;;;;;;2.88;2.58;;;11.40;94.60;;;;;;4933584;28;20615;-68
2021/09/01 05:06:19;;;;;;;14.25;3.22;;;11.50;94.80;;;;;;4932534;29;20038;-68
2021/09/01 05:08:44;;;;;;;7.32;3.45;;;11.40;94.60;;;;;;4933655;29;20027;-68
2021/09/01 05:11:10;;;;;;;4.45;2.70;;;11.50;94.70;;;;;;4934323;29;20059;-68
2021/09/01 05:13:36;;;;;;;11.98;2.78;;;11.40;94.80;;;;;;4930672;29;20035;-68
2021/09/01 05:16:03;;;;;;;4.55;3.00;;;11.50;94.70;;;;;;4934225;29;20366;-69
2021/09/01 05:18:28;;;;;;;16.27;3.60;;;11.50;94.80;;;;;;4931725;28;20042;-68
2021/09/01 05:20:59;;;;;;;3.63;3.05;;;11.40;94.80;;;;;;4933492;28;20031;-68
2021/09/01 05:23:31;;;;;;;6.70;3.53;;;11.40;95.10;;;;;;4932799;29;20027;-68
2021/09/01 05:26:00;;;;;;;8.60;3.28;;;11.40;94.80;;;;;;4961402;28;20417;-69
2021/09/01 05:28:28;;;;;;;4.45;3.33;;;11.40;94.90;;;;;;4931960;29;20023;-68
2021/09/01 05:30:54;;;;;;;3.37;2.87;;;11.40;95.00;;;;;;4938873;28;20035;-68
2021/09/01 05:33:21;;;;;;;5.40;2.90;;;11.40;94.90;;;;;;4934217;29;20031;-69
2021/09/01 05:35:50;;;;;;;9.02;3.10;;;11.40;95.20;;;;;;4933326;28;20044;-68
2021/09/01 05:38:20;;;;;;;18.50;4.22;;;11.40;94.80;;;;;;4931033;29;20546;-69
2021/09/01 05:40:48;;;;;;;13.65;3.60;;;11.40;94.90;;;;;;4928304;29;20034;-68
2021/09/01 05:43:16;;;;;;;30.37;4.10;;;11.30;94.90;;;;;;4927212;29;20270;-68
2021/09/01 05:45:43;;;;;;;15.85;5.05;;;11.30;95.10;;;;;;4927196;28;20035;-68
2021/09/01 05:48:09;;;;;;;8.77;3.40;;;11.40;95.00;;;;;;4924283;29;20038;-69
2021/09/01 05:50:35;;;;;;;19.73;4.40;;;11.30;95.20;;;;;;4929948;29;20110;-68
2021/09/01 05:53:01;;;;;;;23.15;4.90;;;11.40;95.60;;;;;;4926313;29;20031;-68
2021/09/01 05:55:31;;;;;;;13.45;3.78;;;11.40;95.20;;;;;;4932824;29;20082;-69
2021/09/01 05:58:01;;;;;;;33.67;4.78;;;11.40;95.30;;;;;;4927670;29;20035;-69
2021/09/01 06:00:35;;;;;;;10.68;3.90;;;11.40;95.30;;;;;;4933549;28;20046;-69
2021/09/01 06:03:22;;;;;;;6.85;3.63;;;11.50;95.40;;;;;;4935495;28;20098;-68
2021/09/01 06:05:57;;;;;;;34.58;4.82;;;11.50;95.40;;;;;;4925560;29;20330;-68
2021/09/01 06:08:32;;;;;;;6.45;3.50;;;11.40;95.50;;;;;;4937020;28;20028;-68
2021/09/01 06:11:00;;;;;;;57.65;5.55;;;11.50;95.70;;;;;;4929487;29;20579;-68
2021/09/01 06:13:25;;;;;;;25.40;5.47;;;11.50;95.60;;;;;;4929532;29;20024;-70
2021/09/01 06:15:51;;;;;;;37.92;4.50;;;11.60;95.80;;;;;;4933103;28;20122;-68
2021/09/01 06:18:17;;;;;;;56.33;5.80;;;11.60;95.60;;;;;;4927314;29;20504;-69
2021/09/01 06:20:43;;;;;;;42.88;5.85;;;11.60;95.90;;;;;;4922682;29;20035;-69
2021/09/01 06:23:09;;;;;;;60.92;5.43;;;11.60;95.90;;;;;;4932461;29;20040;-69
2021/09/01 06:25:36;;;;;;;52.08;5.72;;;11.60;95.90;;;;;;4932020;29;20111;-68
2021/09/01 06:28:03;;;;;;;42.60;5.35;;;11.60;95.80;;;;;;4931879;29;20380;-68
2021/09/01 06:30:29;;;;;;;89.95;9.30;;;11.70;96.00;;;;;;4928947;28;20028;-69
2021/09/01 06:32:55;;;;;;;48.92;5.95;;;11.70;95.80;;;;;;4932526;29;20024;-69
2021/09/01 06:35:21;;;;;;;49.28;5.35;;;11.60;96.00;;;;;;4944968;28;20043;-69
2021/09/01 06:37:47;;;;;;;19.73;5.60;;;11.70;96.00;;;;;;4935329;28;20027;-69
2021/09/01 06:40:15;;;;;;;38.28;5.65;;;11.60;95.90;;;;;;4929935;28;20400;-69
2021/09/01 06:42:41;;;;;;;4.95;4.03;;;11.60;95.90;;;;;;4933695;28;20032;-68
2021/09/01 06:45:09;;;;;;;40.53;6.00;;;11.70;96.20;;;;;;4932089;29;20063;-68
2021/09/01 06:47:51;;;;;;;61.95;7.13;;;11.70;96.00;;;;;;4932031;29;20556;-69
2021/09/01 06:50:22;;;;;;;41.60;6.63;;;11.70;96.20;;;;;;4963706;28;20487;-69
2021/09/01 06:52:49;;;;;;;17.27;5.05;;;11.80;96.20;;;;;;4933098;29;20400;-69
2021/09/01 06:55:15;;;;;;;39.97;6.32;;;11.70;96.30;;;;;;4938623;28;20035;-68
2021/09/01 06:57:41;;;;;;;27.15;5.95;;;11.80;96.60;;;;;;4933016;29;20047;-69
2021/09/01 07:00:10;;;;;;;27.40;6.85;;;11.90;96.70;;;;;;4930559;29;20545;-69
2021/09/01 07:02:36;;;;;;;31.20;8.00;;;11.90;96.80;;;;;;4926626;29;20055;-69
2021/09/01 07:05:02;;;;;;;9.38;6.05;;;12.00;96.50;;;;;;4932760;29;20039;-69
2021/09/01 07:07:28;;;;;;;33.08;6.60;;;12.10;96.90;;;;;;4932869;29;20063;-69
2021/09/01 07:09:55;;;;;;;20.17;7.07;;;12.20;97.00;;;;;;4933210;29;20031;-69
2021/09/01 07:12:20;;;;;;;39.08;7.32;;;12.20;97.00;;;;;;4932572;28;20062;-68
2021/09/01 07:14:46;;;;;;;13.13;6.20;;;12.20;96.90;;;;;;4931819;28;20051;-69
2021/09/01 07:17:12;;;;;;;16.00;6.93;;;12.30;96.90;;;;;;4932816;29;20020;-69
2021/09/01 07:19:37;;;;;;;12.00;7.60;;;12.40;97.20;;;;;;4930105;28;20023;-69
2021/09/01 07:22:03;;;;;;;10.90;6.47;;;12.50;97.20;;;;;;4933400;29;20103;-69
2021/09/01 07:24:29;;;;;;;12.10;6.78;;;12.50;97.00;;;;;;4936784;29;20035;-68
2021/09/01 07:26:54;;;;;;;16.13;7.03;;;12.60;96.90;;;;;;4936072;28;20039;-69
2021/09/01 07:29:20;;;;;;;10.73;6.63;;;12.60;97.00;;;;;;4934366;28;20114;-68
2021/09/01 07:31:46;;;;;;;12.65;6.60;;;12.70;96.60;;;;;;4934581;28;20035;-69
2021/09/01 07:34:11;;;;;;;10.73;7.38;;;12.80;96.80;;;;;;4936720;28;20099;-69
2021/09/01 07:36:37;;;;;;;17.50;8.45;;;12.90;96.80;;;;;;4935855;29;20051;-69
2021/09/01 07:39:03;;;;;;;14.93;8.10;;;12.90;96.70;;;;;;4935614;28;20036;-69
2021/09/01 07:41:29;;;;;;;11.90;7.43;;;13.00;96.60;;;;;;4935162;28;20053;-68
2021/09/01 07:43:54;;;;;;;17.02;8.68;;;12.90;96.50;;;;;;4942555;28;20118;-69
2021/09/01 07:46:20;;;;;;;14.57;8.30;;;13.00;97.00;;;;;;4934580;28;20036;-69
2021/09/01 07:48:45;;;;;;;16.90;9.63;;;13.10;96.90;;;;;;4932820;29;20039;-68
2021/09/01 07:51:11;;;;;;;17.88;9.20;;;13.20;97.20;;;;;;4935011;29;20034;-68
2021/09/01 07:53:37;;;;;;;15.80;8.73;;;13.30;97.20;;;;;;4932699;28;20074;-68
2021/09/01 07:56:02;;;;;;;17.92;10.30;;;13.40;97.40;;;;;;4935554;29;20039;-68
2021/09/01 07:58:28;;;;;;;20.73;12.00;;;13.60;97.50;;;;;;4933936;28;20043;-69
2021/09/01 08:00:54;;;;;;;19.88;11.30;;;13.70;97.40;;;;;;4933153;28;20050;-68
2021/09/01 08:03:20;;;;;;;20.35;11.15;;;13.90;97.50;;;;;;4934595;29;20039;-68
2021/09/01 08:05:46;;;;;;;24.17;12.63;;;14.00;97.20;;;;;;4934000;29;20485;-69
2021/09/01 08:08:12;;;;;;;20.98;11.70;;;14.20;97.50;;;;;;4933572;29;20066;-68
2021/09/01 08:10:37;;;;;;;23.00;11.65;;;14.30;97.30;;;;;;4935600;29;20115;-68
2021/09/01 08:13:03;;;;;;;20.95;11.80;;;14.40;97.10;;;;;;4932461;29;20039;-68
2021/09/01 08:15:29;;;;;;;24.25;11.90;;;14.60;97.10;;;;;;4935417;29;20042;-68
2021/09/01 08:17:54;;;;;;;20.27;11.57;;;14.60;96.50;;;;;;4933449;29;20035;-68
2021/09/01 08:20:20;;;;;;;22.13;12.02;;;14.70;96.50;;;;;;4934043;29;20035;-69
2021/09/01 08:22:46;;;;;;;19.83;10.60;;;14.90;96.40;;;;;;4935404;29;20482;-69
2021/09/01 08:25:11;;;;;;;18.15;11.10;;;15.00;95.80;;;;;;4933007;29;20036;-68
2021/09/01 08:27:38;;;;;;;16.05;9.73;;;15.10;95.90;;;;;;4934769;29;20059;-69
2021/09/01 08:30:06;;;;;;;13.95;9.15;;;15.20;94.70;;;;;;4930096;29;20393;-69
2021/09/01 08:32:31;;;;;;;18.45;10.85;;;15.30;95.20;;;;;;4937215;29;20205;-68
2021/09/01 08:34:57;;;;;;;15.23;9.80;;;15.50;95.50;;;;;;4933281;29;20134;-68
2021/09/01 08:37:23;;;;;;;18.13;9.80;;;15.60;95.00;;;;;;4933711;28;20043;-68
2021/09/01 08:39:48;;;;;;;14.38;8.15;;;15.60;93.60;;;;;;4933563;29;20047;-67
2021/09/01 08:42:17;;;;;;;16.92;8.98;;;15.60;93.40;;;;;;4934239;28;20031;-68
2021/09/01 08:44:43;;;;;;;14.25;8.90;;;15.80;93.80;;;;;;4932624;29;20044;-68
2021/09/01 08:47:11;;;;;;;14.25;8.18;;;15.80;93.20;;;;;;4935818;29;20035;-68
2021/09/01 08:49:36;;;;;;;14.52;8.65;;;15.70;92.40;;;;;;4936716;29;20520;-69
2021/09/01 08:52:02;;;;;;;12.18;7.57;;;15.50;92.00;;;;;;4935109;29;20108;-68
2021/09/01 08:54:28;;;;;;;13.57;8.63;;;15.40;92.50;;;;;;4931531;28;20026;-68
2021/09/01 08:56:54;;;;;;;11.15;7.25;;;15.40;92.80;;;;;;4937470;29;20031;-68
2021/09/01 08:59:19;;;;;;;12.73;8.30;;;15.60;92.20;;;;;;4935473;29;20039;-69
2021/09/01 09:01:49;;;;;;;14.55;8.10;;;15.60;92.10;;;;;;4936723;28;20039;-68
2021/09/01 09:04:17;;;;;;;12.05;7.40;;;15.60;91.80;;;;;;4960524;28;20058;-68
2021/09/01 09:06:51;;;;;;;12.38;7.72;;;15.80;92.20;;;;;;4930867;29;20035;-69
2021/09/01 09:09:20;;;;;;;10.20;6.63;;;16.00;92.70;;;;;;4932884;29;20031;-68
2021/09/01 09:11:46;;;;;;;10.55;6.65;;;15.90;90.50;;;;;;4938216;29;20019;-68
2021/09/01 09:14:19;;;;;;;11.20;6.70;;;16.00;91.50;;;;;;4934201;28;20028;-68
2021/09/01 09:16:45;;;;;;;10.88;5.95;;;16.20;92.30;;;;;;4933562;29;20035;-68
2021/09/01 09:19:13;;;;;;;10.88;5.70;;;16.20;90.20;;;;;;4932605;29;20027;-68
2021/09/01 09:21:38;;;;;;;10.13;6.10;;;16.20;90.10;;;;;;4940051;28;20028;-68
2021/09/01 09:24:19;;;;;;;8.20;5.40;;;16.10;90.40;;;;;;4933287;28;20102;-68
2021/09/01 09:26:45;;;;;;;9.10;6.03;;;16.10;89.90;;;;;;4927866;29;20043;-68
2021/09/01 09:29:14;;;;;;;8.80;5.80;;;16.00;90.50;;;;;;4933166;29;20023;-68
2021/09/01 09:31:42;;;;;;;7.45;5.35;;;16.00;90.70;;;;;;4930493;28;20175;-68
2021/09/01 09:34:11;;;;;;;7.82;5.25;;;15.90;89.80;;;;;;4931591;29;20020;-69
2021/09/01 09:36:37;;;;;;;;;;;15.90;89.40;;;;;;4932823;29;20035;-68
2021/09/01 09:39:04;;;;;;;9.75;5.85;;;15.90;88.00;;;;;;4931208;29;19922;-68
2021/09/01 09:41:30;;;;;;;6.72;5.03;;;15.90;88.40;;;;;;4941367;29;20074;-69
2021/09/01 09:44:03;;;;;;;9.23;5.22;;;16.00;89.70;;;;;;4933463;29;20027;-68
2021/09/01 09:46:30;;;;;;;7.47;5.22;;;16.20;90.20;;;;;;4933351;28;20039;-69
2021/09/01 09:49:06;;;;;;;9.43;6.28;;;16.30;88.50;;;;;;4939913;28;20465;-68
2021/09/01 09:51:42;;;;;;;8.00;5.50;;;16.30;88.10;;;;;;4930395;29;20023;-68
2021/09/01 09:54:19;;;;;;;9.57;5.95;;;16.10;87.00;;;;;;4936040;29;20035;-69
2021/09/01 09:56:46;;;;;;;8.52;5.28;;;16.00;87.20;;;;;;4923512;29;20062;-68
2021/09/01 09:59:22;;;;;;;7.80;5.38;;;16.00;89.80;;;;;;4927054;29;20043;-68
2021/09/01 10:01:49;;;;;;;11.25;4.97;;;16.10;88.90;;;;;;4929598;28;20076;-68
2021/09/01 10:04:15;;;;;;;7.45;4.75;;;16.30;87.20;;;;;;4931832;29;20043;-68
2021/09/01 10:06:42;;;;;;;6.28;4.20;;;16.50;87.70;;;;;;4931922;28;20063;-68
2021/09/01 10:09:09;;;;;;;7.30;4.70;;;16.70;83.50;;;;;;4927440;29;20078;-68
2021/09/01 10:11:37;;;;;;;6.20;3.40;;;16.70;81.90;;;;;;4930779;29;20036;-68
2021/09/01 10:14:05;;;;;;;5.13;4.00;;;16.80;79.10;;;;;;4932571;29;20386;-68
2021/09/01 10:16:32;;;;;;;8.30;3.83;;;16.80;78.60;;;;;;4932931;28;20035;-68
2021/09/01 10:19:27;;;;;;;6.40;4.50;;;16.90;79.90;;;;;;4930097;29;20488;-68
2021/09/01 10:21:57;;;;;;;6.80;3.92;;;17.00;79.50;;;;;;4949426;28;20147;-68
2021/09/01 10:24:37;;;;;;;4.95;3.67;;;17.10;75.80;;;;;;4932278;29;20079;-68
2021/09/01 10:27:11;;;;;;;5.78;3.75;;;17.10;73.20;;;;;;4932925;29;20039;-69
2021/09/01 10:30:08;;;;;;;6.30;3.55;;;17.20;76.60;;;;;;4931227;29;20058;-68
2021/09/01 10:32:44;;;;;;;6.18;4.00;;;17.20;75.00;;;;;;4931419;28;20155;-69
2021/09/01 10:35:15;;;;;;;5.15;3.50;;;17.30;75.00;;;;;;4932462;28;20690;-69
2021/09/01 10:37:54;;;;;;;7.97;3.63;;;17.30;76.10;;;;;;4931466;28;20028;-69
2021/09/01 10:40:19;;;;;;;6.00;3.90;;;17.30;75.40;;;;;;4931019;29;20032;-69
2021/09/01 10:42:46;;;;;;;5.70;3.92;;;17.40;76.00;;;;;;4934167;29;20051;-69
2021/09/01 10:45:20;;;;;;;6.13;3.63;;;17.60;76.70;;;;;;4934030;28;20040;-69
2021/09/01 10:47:51;;;;;;;5.30;3.15;;;17.60;73.80;;;;;;4932655;29;20032;-68
2021/09/01 10:50:23;;;;;;;6.18;3.40;;;17.70;72.70;;;;;;4933756;29;20031;-68
2021/09/01 10:53:03;;;;;;;4.72;3.40;;;17.80;74.50;;;;;;4932192;29;20028;-68
2021/09/01 10:55:30;;;;;;;4.85;3.75;;;17.70;68.10;;;;;;4933682;28;20082;-69
2021/09/01 10:58:13;;;;;;;4.55;3.55;;;17.70;72.10;;;;;;4932277;29;20027;-69
2021/09/01 11:00:39;;;;;;;6.78;4.57;;;17.80;72.60;;;;;;4935840;28;20036;-68
2021/09/01 11:03:05;;;;;;;8.00;4.82;;;17.80;77.90;;;;;;4936830;28;20499;-69
2021/09/01 11:05:31;;;;;;;4.88;3.72;;;18.00;81.70;;;;;;4935053;29;20122;-70
2021/09/01 11:07:57;;;;;;;5.28;3.95;;;18.20;77.60;;;;;;4936203;28;20023;-68
2021/09/01 11:10:23;;;;;;;6.53;3.92;;;18.30;77.30;;;;;;4936654;29;20438;-68
2021/09/01 11:13:01;;;;;;;5.68;3.88;;;18.20;77.80;;;;;;4936733;29;20111;-68
2021/09/01 11:15:42;;;;;;;5.53;3.90;;;18.20;76.20;;;;;;4936763;28;20066;-69
2021/09/01 11:18:08;;;;;;;7.63;4.43;;;18.20;77.70;;;;;;4933430;29;20062;-69
2021/09/01 11:20:51;;;;;;;6.07;4.35;;;18.00;75.90;;;;;;4936202;29;20497;-68
2021/09/01 11:23:17;;;;;;;5.85;4.00;;;17.90;76.40;;;;;;4935958;29;20027;-69
2021/09/01 11:25:42;;;;;;;6.82;3.85;;;17.60;73.70;;;;;;4935352;29;20438;-69
2021/09/01 11:28:12;;;;;;;6.32;4.07;;;17.50;75.70;;;;;;4936147;29;20458;-68
2021/09/01 11:30:38;;;;;;;4.93;3.83;;;17.60;76.40;;;;;;4935040;28;20036;-68
2021/09/01 11:33:03;;;;;;;5.35;4.10;;;17.50;75.10;;;;;;4935688;28;20075;-68
2021/09/01 11:35:29;;;;;;;6.20;3.80;;;17.30;76.10;;;;;;4935778;29;20027;-69
2021/09/01 11:37:59;;;;;;;6.18;3.95;;;17.20;76.30;;;;;;4935386;28;20024;-68
2021/09/01 11:40:42;;;;;;;3.90;3.55;;;17.00;74.70;;;;;;4931981;29;20432;-69
2021/09/01 11:43:20;;;;;;;8.88;3.85;;;17.00;77.20;;;;;;4935361;29;20171;-68
2021/09/01 11:45:47;;;;;;;6.00;3.40;;;17.30;78.70;;;;;;4935588;28;20409;-68
2021/09/01 11:48:13;;;;;;;5.23;3.30;;;17.60;76.80;;;;;;4933506;29;20414;-69
2021/09/01 11:50:46;;;;;;;5.80;4.05;;;17.90;72.60;;;;;;4935456;28;20027;-68
2021/09/01 11:53:14;;;;;;;5.25;3.25;;;17.90;74.10;;;;;;4935367;29;20477;-68
2021/09/01 11:55:40;;;;;;;3.55;3.17;;;17.80;69.50;;;;;;4940121;28;20062;-68
2021/09/01 11:58:20;;;;;;;5.05;3.40;;;17.90;71.20;;;;;;4937986;28;20035;-68
2021/09/01 12:00:47;;;;;;;5.53;3.45;;;18.20;68.90;;;;;;4932222;28;20040;-67
2021/09/01 12:03:13;;;;;;;6.68;3.33;;;18.30;68.50;;;;;;4932345;29;20508;-68
2021/09/01 12:05:43;;;;;;;3.45;2.83;;;18.30;68.60;;;;;;4934862;28;20051;-68
2021/09/01 12:08:20;;;;;;;4.60;3.40;;;18.40;67.90;;;;;;4933868;28;20024;-68
2021/09/01 12:10:48;;;;;;;3.97;3.20;;;18.50;68.30;;;;;;4935287;29;20028;-68
2021/09/01 12:13:14;;;;;;;4.53;3.28;;;18.50;66.50;;;;;;4936659;28;20039;-68
2021/09/01 12:15:58;;;;;;;3.55;2.80;;;18.50;67.30;;;;;;4934236;29;20040;-68
2021/09/01 12:18:24;;;;;;;3.88;2.70;;;18.50;62.90;;;;;;4932616;29;20060;-68
2021/09/01 12:20:56;;;;;;;4.78;2.53;;;18.50;66.50;;;;;;4933111;29;20032;-68
2021/09/01 12:23:22;;;;;;;3.13;2.80;;;18.50;65.10;;;;;;4941251;29;20027;-68
2021/09/01 12:25:48;;;;;;;4.40;3.20;;;18.50;65.60;;;;;;4932792;29;20024;-68
2021/09/01 12:28:14;;;;;;;4.13;3.33;;;18.60;65.10;;;;;;4934854;29;20115;-68
2021/09/01 12:30:45;;;;;;;4.65;3.80;;;18.60;66.50;;;;;;4935466;28;20058;-67
2021/09/01 12:33:12;;;;;;;6.15;3.50;;;18.60;70.70;;;;;;4934195;29;20414;-68
2021/09/01 12:35:38;;;;;;;7.88;4.35;;;18.60;69.50;;;;;;4929619;29;20500;-68
2021/09/01 12:38:07;;;;;;;4.07;3.10;;;18.60;66.60;;;;;;4932491;29;20079;-68
2021/09/01 12:40:36;;;;;;;;;;;18.50;65.00;;;;;;4934524;29;20024;-68
2021/09/01 12:43:07;;;;;;;4.45;3.25;;;18.40;66.80;;;;;;4933448;29;20316;-69
2021/09/01 12:45:34;;;;;;;7.85;3.33;;;18.50;66.80;;;;;;4933328;29;20047;-68
2021/09/01 12:48:11;;;;;;;5.77;2.97;;;18.60;66.30;;;;;;4934268;29;20039;-68
2021/09/01 12:50:40;;;;;;;4.85;3.10;;;18.40;62.80;;;;;;4932637;29;20103;-68
2021/09/01 12:53:11;;;;;;;6.53;3.35;;;18.50;64.90;;;;;;4942310;29;20050;-68
2021/09/01 12:55:44;;;;;;;4.93;3.20;;;18.50;67.20;;;;;;4930732;29;20032;-68